Aviation Digital Data Service (ADDS)

Output produced by METARs form (1146 UTC 24 May 2022)
found at http://www.aviationweather.gov/metar/data/
 
VTSP 241130Z 29006KT 9999 FEW020 29/25 Q1008 NOSIG
VTSP 241100Z 30006KT 9999 FEW020 30/26 Q1008 NOSIG
VTSP 241030Z 30007KT 9999 FEW020 30/26 Q1008 NOSIG
VTSP 241000Z 30007KT 270V330 9999 FEW020 31/25 Q1008 NOSIG
VTSP 240930Z 31006KT 270V340 9999 FEW020 32/26 Q1008 NOSIG
VTSP 240900Z 29007KT 260V350 9999 FEW020 32/26 Q1008 NOSIG
VTSP 240830Z 27009KT 250V310 9999 FEW020 32/26 Q1008 NOSIG
VTSP 240800Z 28009KT 9999 FEW020 32/25 Q1009 NOSIG
VTSP 240730Z 29008KT 9999 FEW020 32/26 Q1009 NOSIG
VTSP 240700Z 28009KT 9999 FEW020 32/26 Q1009 NOSIG
VTSP 240630Z 28008KT 250V320 9999 FEW020 32/26 Q1009 NOSIG
VTSP 240600Z 27009KT 240V310 9999 FEW020 32/26 Q1009 NOSIG
VTSP 240530Z 28009KT 250V320 9999 FEW020 32/26 Q1009 NOSIG
VTSP 240500Z 27009KT 9999 FEW020 32/26 Q1010 NOSIG
VTSP 240430Z 27010KT 240V310 9999 FEW020 31/25 Q1010 NOSIG
VTSP 240400Z 27010KT 9999 FEW020 32/25 Q1010 NOSIG
VTSP 240330Z 27011KT 240V300 9999 SCT020 32/25 Q1010 NOSIG
VTSP 240300Z 27010KT 9999 SCT020 31/26 Q1011 NOSIG
VTSP 240230Z 26009KT 9999 SCT020 31/25 Q1011 NOSIG
VTSP 240200Z 26008KT 9999 FEW020 31/26 Q1010 NOSIG
VTSP 240130Z 26008KT 220V280 9999 FEW020 31/25 Q1010 NOSIG
VTSP 240100Z 24005KT 9999 FEW020 30/25 Q1009 NOSIG
VTSP 240030Z 23004KT 200V270 9999 FEW020 29/25 Q1009 NOSIG
VTSP 240000Z 22004KT 180V270 9999 FEW020 29/25 Q1008 NOSIG
VTSP 232330Z 25003KT 210V310 9999 SCT020 28/25 Q1008 NOSIG
VTSP 232300Z 21003KT 180V260 9999 FEW020 28/25 Q1008 NOSIG
VTSP 232230Z 22004KT 190V260 9999 FEW020 28/25 Q1008 NOSIG
VTSP 232200Z 22003KT 9999 FEW020 28/25 Q1007 NOSIG
VTSP 232130Z 22003KT 190V260 9999 FEW020 28/24 Q1007 NOSIG
VTSP 232100Z 23004KT 200V280 9999 FEW020 28/24 Q1006 NOSIG
VTSP 232030Z 24006KT 9999 FEW020 28/25 Q1006 NOSIG
VTSP 232000Z 25006KT 210V270 9999 FEW020 28/25 Q1006 NOSIG
VTSP 231930Z 26006KT 9999 FEW020 28/25 Q1006 NOSIG
VTSP 231900Z 24003KT 200V300 9999 FEW020 28/25 Q1007 NOSIG
VTSP 231830Z 24003KT 190V290 9999 FEW020 28/25 Q1007 NOSIG
VTSP 231800Z 28006KT 9999 FEW020 28/25 Q1007 NOSIG
VTSP 231730Z 28006KT 9999 FEW020 28/25 Q1008 NOSIG
VTSP 231700Z 28007KT 9999 FEW020 28/25 Q1008 NOSIG
VTSP 231630Z 28007KT 9999 FEW020 28/24 Q1008 NOSIG
VTSP 231600Z 29008KT 9999 FEW020 29/25 Q1008 NOSIG
VTSP 231530Z 29008KT 9999 FEW020 28/24 Q1008 NOSIG
VTSP 231500Z 29007KT 9999 FEW020 28/24 Q1007 NOSIG
VTSP 231430Z 28007KT 9999 FEW020 29/24 Q1007 NOSIG
VTSP 231400Z 28008KT 9999 FEW020 29/24 Q1007 NOSIG
VTSP 231330Z 29007KT 260V320 9999 FEW020 29/25 Q1006 NOSIG
VTSP 231300Z 29006KT 9999 FEW020 29/25 Q1006 NOSIG
VTSP 231230Z 28006KT 9999 FEW020 29/24 Q1006 NOSIG
VTSP 231200Z 29005KT 9999 FEW020 29/25 Q1005 NOSIG
VTSP 231130Z 28007KT 9999 FEW020 29/25 Q1005 NOSIG
VTSP 231100Z 28006KT 9999 FEW020 30/26 Q1005 NOSIG
TAF VTSP 241100Z 2412/2518 24006KT 9999 FEW020 
     TEMPO 2500/2504 26015G25KT 3000 TSRA FEW018CB SCT020 BKN100